Time;durP1;ratioP1;P1;durP2;ratioP2;P2;SDS_P1;SDS_P2;PMS_P1;PMS_P2;Temp;Humidity;BMP_temperature;BMP_pressure;BME280_temperature;BME280_humidity;BME280_pressure;Samples;Min_cycle;Max_cycle;Signal;HPM_P1;HPM_P2
2023/08/16 00:00:22;;;;;;;10.55;5.65;;;14.80;99.90;;;;;;5094450;28;20032;-62
2023/08/16 00:02:48;;;;;;;8.48;5.82;;;14.80;99.90;;;;;;5076799;28;20404;-62
2023/08/16 00:05:14;;;;;;;9.70;6.03;;;14.70;99.90;;;;;;5076982;28;20089;-62
2023/08/16 00:07:40;;;;;;;13.70;7.18;;;14.70;99.90;;;;;;5094284;28;20164;-63
2023/08/16 00:10:10;;;;;;;10.13;6.22;;;14.70;99.90;;;;;;5095057;28;20514;-62
2023/08/16 00:12:36;;;;;;;8.18;6.05;;;14.60;99.90;;;;;;5076874;28;20047;-62
2023/08/16 00:15:02;;;;;;;11.32;5.88;;;14.60;99.90;;;;;;5094614;28;20391;-62
2023/08/16 00:17:27;;;;;;;9.95;5.13;;;14.60;99.90;;;;;;5076666;28;20092;-62
2023/08/16 00:19:53;;;;;;;10.50;5.90;;;14.60;99.90;;;;;;5076927;28;20036;-62
2023/08/16 00:22:19;;;;;;;8.50;6.20;;;14.60;99.90;;;;;;5076157;28;20032;-62
2023/08/16 00:24:45;;;;;;;8.23;5.60;;;14.60;99.90;;;;;;5094422;28;20043;-62
2023/08/16 00:27:10;;;;;;;10.05;5.68;;;14.60;99.90;;;;;;5059981;28;20508;-62
2023/08/16 00:29:36;;;;;;;8.50;5.15;;;14.60;99.90;;;;;;5093791;28;20040;-62
2023/08/16 00:32:04;;;;;;;9.80;5.90;;;14.60;99.90;;;;;;5094816;28;20040;-62
2023/08/16 00:34:30;;;;;;;7.65;5.03;;;14.60;99.90;;;;;;5075235;28;20089;-62
2023/08/16 00:36:55;;;;;;;8.13;5.35;;;14.60;99.90;;;;;;5060237;28;20125;-62
2023/08/16 00:39:21;;;;;;;8.25;5.95;;;14.60;99.90;;;;;;5093655;28;20040;-62
2023/08/16 00:41:47;;;;;;;11.20;7.13;;;14.60;99.90;;;;;;5075636;28;20066;-62
2023/08/16 00:44:12;;;;;;;10.95;6.32;;;14.60;99.90;;;;;;5075883;28;20032;-62
2023/08/16 00:46:38;;;;;;;9.20;6.00;;;14.50;99.90;;;;;;5076047;28;20116;-62
2023/08/16 00:49:04;;;;;;;12.60;6.47;;;14.50;99.90;;;;;;5075599;28;20052;-62
2023/08/16 00:51:30;;;;;;;8.25;5.20;;;14.50;99.90;;;;;;5075963;28;20411;-62
2023/08/16 00:53:56;;;;;;;10.40;5.85;;;14.50;99.90;;;;;;5094444;28;20115;-62
2023/08/16 00:56:22;;;;;;;9.77;6.50;;;14.50;99.90;;;;;;5075221;28;20036;-62
2023/08/16 00:58:48;;;;;;;11.20;6.75;;;14.50;99.90;;;;;;5094057;28;20400;-62
2023/08/16 01:01:15;;;;;;;11.20;6.43;;;14.50;99.90;;;;;;5075891;28;20048;-62
2023/08/16 01:03:41;;;;;;;10.65;5.38;;;14.40;99.90;;;;;;5058570;28;20432;-62
2023/08/16 01:06:06;;;;;;;9.00;5.80;;;14.40;99.90;;;;;;5075635;28;20036;-62
2023/08/16 01:08:33;;;;;;;8.02;5.72;;;14.40;99.90;;;;;;5075806;28;20047;-62
2023/08/16 01:11:27;;;;;;;8.65;5.60;;;14.40;99.90;;;;;;5093507;28;20100;-62
2023/08/16 01:14:13;;;;;;;9.30;6.25;;;14.30;99.90;;;;;;5059102;28;20489;-62
2023/08/16 01:16:40;;;;;;;10.93;6.68;;;14.30;99.90;;;;;;5092885;28;20036;-63
2023/08/16 01:19:13;;;;;;;9.25;5.80;;;14.30;99.90;;;;;;5093874;28;20126;-62
2023/08/16 01:21:46;;;;;;;9.27;6.40;;;14.30;99.90;;;;;;5093669;28;20524;-62
2023/08/16 01:24:28;;;;;;;9.45;5.85;;;14.30;99.90;;;;;;5092751;28;20043;-62
2023/08/16 01:26:55;;;;;;;10.32;6.00;;;14.40;99.90;;;;;;5075702;28;20051;-62
2023/08/16 01:29:22;;;;;;;8.13;5.55;;;14.40;99.90;;;;;;5093403;28;20040;-62
2023/08/16 01:31:48;;;;;;;9.25;5.88;;;14.30;99.90;;;;;;5092916;28;20052;-62
2023/08/16 01:34:14;;;;;;;7.82;5.70;;;14.30;99.90;;;;;;5093107;28;20438;-62
2023/08/16 01:36:39;;;;;;;9.48;6.20;;;14.30;99.90;;;;;;5075435;28;20040;-62
2023/08/16 01:39:05;;;;;;;8.40;6.22;;;14.30;99.90;;;;;;5074528;28;20072;-62
2023/08/16 01:41:38;;;;;;;9.32;5.20;;;14.30;99.90;;;;;;5075064;28;20043;-62
2023/08/16 01:44:06;;;;;;;9.35;6.18;;;14.20;99.90;;;;;;5093396;28;20085;-62
2023/08/16 01:46:33;;;;;;;7.70;5.95;;;14.20;99.90;;;;;;5074279;28;20051;-62
2023/08/16 01:49:00;;;;;;;8.23;5.93;;;14.20;99.90;;;;;;5075292;28;20063;-62
2023/08/16 01:51:26;;;;;;;10.32;6.10;;;14.20;99.90;;;;;;5074056;28;20040;-62
2023/08/16 01:53:53;;;;;;;8.10;6.20;;;14.20;99.90;;;;;;5057304;28;20139;-62
2023/08/16 01:56:19;;;;;;;10.73;6.63;;;14.10;99.90;;;;;;5092820;28;20495;-62
2023/08/16 01:58:46;;;;;;;10.15;6.32;;;14.10;99.90;;;;;;5093038;28;20115;-62
2023/08/16 02:01:12;;;;;;;10.70;6.63;;;14.10;99.90;;;;;;5092286;28;20445;-62
2023/08/16 02:03:38;;;;;;;8.73;5.75;;;14.10;99.90;;;;;;5074842;28;20039;-62
2023/08/16 02:06:03;;;;;;;9.25;5.55;;;14.00;99.90;;;;;;5092540;28;20036;-62
2023/08/16 02:08:29;;;;;;;7.30;4.97;;;14.00;99.90;;;;;;5074319;28;20189;-62
2023/08/16 02:10:56;;;;;;;7.97;5.00;;;13.90;99.90;;;;;;5074765;28;20047;-62
2023/08/16 02:13:21;;;;;;;8.32;5.18;;;13.90;99.90;;;;;;5091863;28;20071;-62
2023/08/16 02:15:47;;;;;;;7.50;4.88;;;13.90;99.90;;;;;;5092849;28;20490;-62
2023/08/16 02:18:13;;;;;;;8.43;5.13;;;13.90;99.90;;;;;;5074707;28;20040;-62
2023/08/16 02:20:39;;;;;;;9.68;5.93;;;13.90;99.90;;;;;;5091788;28;20028;-62
2023/08/16 02:23:08;;;;;;;7.32;5.05;;;13.90;99.90;;;;;;5074293;28;20484;-62
2023/08/16 02:25:34;;;;;;;8.20;5.95;;;13.90;99.90;;;;;;5074433;28;20077;-62
2023/08/16 02:28:00;;;;;;;8.85;5.38;;;14.00;99.90;;;;;;5073992;28;20039;-62
2023/08/16 02:30:26;;;;;;;7.95;5.72;;;13.90;99.90;;;;;;5074438;28;20446;-62
2023/08/16 02:32:54;;;;;;;9.23;6.03;;;13.90;99.90;;;;;;5092677;28;20039;-62
2023/08/16 02:35:21;;;;;;;10.27;5.38;;;13.90;99.90;;;;;;5073307;28;20039;-62
2023/08/16 02:37:46;;;;;;;9.43;5.63;;;13.90;99.90;;;;;;5074241;28;20032;-62
2023/08/16 02:40:12;;;;;;;10.02;5.85;;;13.90;99.90;;;;;;5074348;28;20051;-62
2023/08/16 02:42:38;;;;;;;8.85;6.03;;;13.90;99.90;;;;;;5091535;28;20404;-62
2023/08/16 02:45:04;;;;;;;10.18;6.50;;;13.90;99.90;;;;;;5074228;28;20124;-62
2023/08/16 02:47:30;;;;;;;8.98;5.78;;;13.90;99.90;;;;;;5074486;28;20043;-62
2023/08/16 02:49:56;;;;;;;9.18;6.22;;;13.80;99.90;;;;;;5073345;28;20071;-62
2023/08/16 02:52:22;;;;;;;9.82;5.70;;;13.80;99.90;;;;;;5073747;28;20090;-62
2023/08/16 02:54:47;;;;;;;11.07;5.07;;;13.80;99.90;;;;;;5091812;28;20043;-62
2023/08/16 02:57:15;;;;;;;7.32;5.00;;;13.70;99.90;;;;;;5091401;28;20123;-62
2023/08/16 02:59:42;;;;;;;8.75;5.63;;;13.80;99.90;;;;;;5074298;28;20122;-62
2023/08/16 03:02:08;;;;;;;10.10;5.32;;;13.70;99.90;;;;;;5095666;28;20040;-62
2023/08/16 03:04:39;;;;;;;8.63;5.90;;;13.70;99.90;;;;;;5080430;28;20047;-62
2023/08/16 03:07:09;;;;;;;8.15;5.70;;;13.70;99.90;;;;;;5099023;28;20388;-62
2023/08/16 03:09:36;;;;;;;7.82;5.35;;;13.60;99.90;;;;;;5079875;28;20036;-62
2023/08/16 03:12:02;;;;;;;8.57;5.57;;;13.60;99.90;;;;;;5099025;28;20040;-62
2023/08/16 03:14:28;;;;;;;7.13;4.65;;;13.60;99.90;;;;;;5080258;28;20036;-62
2023/08/16 03:16:55;;;;;;;7.45;5.15;;;13.50;99.90;;;;;;5080500;28;20050;-62
2023/08/16 03:19:21;;;;;;;8.85;4.75;;;13.50;99.90;;;;;;5080614;28;20119;-62
2023/08/16 03:21:47;;;;;;;7.35;4.80;;;13.50;99.90;;;;;;5080283;28;20221;-62
2023/08/16 03:24:13;;;;;;;7.20;5.07;;;13.50;99.90;;;;;;5062861;28;20119;-62
2023/08/16 03:26:38;;;;;;;7.10;4.78;;;13.50;99.90;;;;;;5080561;28;20044;-62
2023/08/16 03:29:04;;;;;;;9.40;5.07;;;13.50;99.90;;;;;;5098963;28;20051;-62
2023/08/16 03:31:30;;;;;;;8.80;5.18;;;13.50;99.90;;;;;;5063005;28;20370;-62
2023/08/16 03:33:56;;;;;;;9.70;5.68;;;13.50;99.90;;;;;;5098557;28;20043;-62
2023/08/16 03:36:22;;;;;;;9.40;5.18;;;13.50;99.90;;;;;;5098439;28;20044;-62
2023/08/16 03:38:48;;;;;;;8.35;4.80;;;13.40;99.90;;;;;;5079535;28;20043;-62
2023/08/16 03:41:14;;;;;;;7.57;5.13;;;13.40;99.90;;;;;;5098322;28;20541;-62
2023/08/16 03:43:39;;;;;;;6.80;4.93;;;13.40;99.90;;;;;;5080253;28;20084;-62
2023/08/16 03:46:05;;;;;;;8.60;5.10;;;13.40;99.90;;;;;;5097830;28;20032;-62
2023/08/16 03:48:31;;;;;;;7.88;4.82;;;13.40;99.90;;;;;;5098250;28;20052;-62
2023/08/16 03:50:57;;;;;;;7.50;4.65;;;13.40;99.90;;;;;;5080441;28;20048;-63
2023/08/16 03:53:23;;;;;;;7.50;5.15;;;13.40;99.90;;;;;;5079578;28;20062;-63
2023/08/16 03:55:55;;;;;;;6.93;4.80;;;13.30;99.90;;;;;;5098269;28;20089;-62
2023/08/16 03:58:21;;;;;;;7.53;5.32;;;13.30;99.90;;;;;;5098494;28;20074;-63
2023/08/16 04:00:48;;;;;;;7.38;5.18;;;13.30;99.90;;;;;;5079870;28;20608;-63
2023/08/16 04:03:13;;;;;;;7.97;4.50;;;13.30;99.90;;;;;;5063335;28;20047;-62
2023/08/16 04:05:39;;;;;;;6.78;4.45;;;13.30;99.90;;;;;;5079576;28;20469;-62
2023/08/16 04:08:05;;;;;;;8.27;5.53;;;13.30;99.90;;;;;;5080367;28;20043;-62
2023/08/16 04:10:30;;;;;;;7.72;5.55;;;13.30;99.90;;;;;;5080038;28;20043;-62
2023/08/16 04:12:56;;;;;;;7.95;5.32;;;13.30;99.90;;;;;;5076504;28;20456;-63
2023/08/16 04:15:22;;;;;;;8.38;5.10;;;13.30;99.90;;;;;;5076940;28;20050;-62
2023/08/16 04:17:47;;;;;;;8.93;5.90;;;13.30;99.90;;;;;;5076568;28;20048;-63
2023/08/16 04:20:13;;;;;;;9.60;5.18;;;13.30;99.90;;;;;;5077314;28;20032;-62
2023/08/16 04:22:40;;;;;;;7.38;4.13;;;13.30;99.90;;;;;;5074785;28;20075;-63
2023/08/16 04:25:06;;;;;;;7.80;4.60;;;13.30;99.90;;;;;;5056670;28;20496;-62
2023/08/16 04:27:32;;;;;;;7.43;4.47;;;13.30;99.90;;;;;;5056067;28;20054;-62
2023/08/16 04:29:58;;;;;;;6.25;4.03;;;13.20;99.90;;;;;;5074795;28;20115;-62
2023/08/16 04:32:24;;;;;;;6.68;4.43;;;13.20;99.90;;;;;;5056257;28;20047;-63
2023/08/16 04:34:49;;;;;;;7.05;3.78;;;13.20;99.90;;;;;;5073552;28;20044;-62
2023/08/16 04:37:16;;;;;;;6.63;4.30;;;13.20;99.90;;;;;;5074241;28;20040;-63
2023/08/16 04:39:41;;;;;;;6.55;4.10;;;13.20;99.90;;;;;;5056244;28;20120;-62
2023/08/16 04:42:07;;;;;;;8.15;5.00;;;13.30;99.90;;;;;;5070842;28;20115;-62
2023/08/16 04:44:33;;;;;;;6.60;3.85;;;13.20;99.90;;;;;;5076448;28;20457;-63
2023/08/16 04:46:59;;;;;;;10.07;5.93;;;13.30;99.90;;;;;;5076559;28;20496;-62
2023/08/16 04:49:26;;;;;;;8.15;4.25;;;13.30;99.90;;;;;;5058690;28;20060;-63
2023/08/16 04:51:53;;;;;;;8.45;4.78;;;13.30;99.90;;;;;;5094314;28;20028;-63
2023/08/16 04:54:18;;;;;;;8.77;5.20;;;13.30;99.90;;;;;;5076177;28;20093;-62
2023/08/16 04:56:44;;;;;;;7.53;4.55;;;13.30;99.90;;;;;;5075143;28;20040;-62
2023/08/16 04:59:10;;;;;;;8.02;4.78;;;13.30;99.90;;;;;;5094131;28;20043;-62
2023/08/16 05:01:36;;;;;;;10.77;5.15;;;13.30;99.90;;;;;;5094026;28;20047;-62
2023/08/16 05:04:03;;;;;;;6.80;4.63;;;13.30;99.90;;;;;;5075231;28;20059;-62
2023/08/16 05:06:30;;;;;;;7.80;4.88;;;13.40;99.90;;;;;;5075943;28;20400;-62
2023/08/16 05:08:55;;;;;;;7.25;4.97;;;13.40;99.90;;;;;;5075056;28;20044;-63
2023/08/16 05:11:21;;;;;;;7.47;4.28;;;13.40;99.90;;;;;;5075698;28;20054;-63
2023/08/16 05:13:47;;;;;;;6.70;4.47;;;13.50;99.90;;;;;;5093767;28;20098;-63
2023/08/16 05:16:12;;;;;;;7.25;4.72;;;13.50;99.90;;;;;;5058419;28;20046;-62
2023/08/16 05:18:38;;;;;;;6.95;4.57;;;13.60;99.90;;;;;;5075539;28;20044;-62
2023/08/16 05:21:04;;;;;;;6.75;4.35;;;13.70;99.90;;;;;;5075919;28;20109;-62
2023/08/16 05:23:30;;;;;;;7.45;4.32;;;13.80;99.90;;;;;;5092682;28;20032;-63
2023/08/16 05:25:56;;;;;;;6.35;4.00;;;13.80;99.90;;;;;;5093922;28;20024;-63
2023/08/16 05:28:22;;;;;;;6.00;3.88;;;13.90;99.90;;;;;;5075629;28;20052;-63
2023/08/16 05:30:47;;;;;;;6.30;3.92;;;14.00;99.90;;;;;;5057819;28;20158;-62
2023/08/16 05:33:13;;;;;;;6.25;4.00;;;14.10;99.90;;;;;;5075490;28;20154;-62
2023/08/16 05:35:39;;;;;;;6.53;4.03;;;14.20;99.90;;;;;;5075360;28;20044;-62
2023/08/16 05:38:05;;;;;;;7.53;3.70;;;14.30;99.90;;;;;;5074967;28;20048;-62
2023/08/16 05:40:31;;;;;;;5.95;3.80;;;14.40;99.90;;;;;;5092667;28;20044;-62
2023/08/16 05:42:57;;;;;;;5.10;3.42;;;14.50;99.90;;;;;;5075458;28;20396;-62
2023/08/16 05:45:26;;;;;;;4.80;2.65;;;14.60;99.90;;;;;;5074504;28;20560;-62
2023/08/16 05:47:52;;;;;;;3.60;2.03;;;14.70;99.90;;;;;;5093172;28;20040;-62
2023/08/16 05:50:18;;;;;;;3.72;2.13;;;14.70;99.90;;;;;;5092774;28;20052;-62
2023/08/16 05:52:44;;;;;;;4.03;2.35;;;14.80;99.90;;;;;;5092231;28;20101;-62
2023/08/16 05:55:09;;;;;;;4.68;2.45;;;14.90;99.90;;;;;;5074932;28;20038;-62
2023/08/16 05:57:35;;;;;;;4.03;2.58;;;15.00;99.90;;;;;;5074615;28;20040;-62
2023/08/16 06:00:01;;;;;;;4.18;2.28;;;15.10;99.90;;;;;;5092222;28;20040;-62
2023/08/16 06:02:27;;;;;;;3.67;2.10;;;15.10;99.90;;;;;;5074784;28;20071;-62
2023/08/16 06:04:52;;;;;;;5.07;2.60;;;15.20;99.90;;;;;;5058294;28;20051;-62
2023/08/16 06:07:18;;;;;;;9.75;3.15;;;15.30;99.90;;;;;;5074055;28;20047;-62
2023/08/16 06:09:44;;;;;;;5.32;3.17;;;15.30;99.90;;;;;;5092726;28;20114;-62
2023/08/16 06:12:11;;;;;;;5.22;2.90;;;15.50;99.90;;;;;;5073693;28;20123;-61
2023/08/16 06:14:37;;;;;;;5.63;3.42;;;15.50;99.90;;;;;;5092703;28;20043;-62
2023/08/16 06:17:03;;;;;;;6.07;3.40;;;15.60;99.90;;;;;;5073809;28;20385;-62
2023/08/16 06:19:29;;;;;;;7.72;3.85;;;15.70;99.90;;;;;;5073363;28;20096;-62
2023/08/16 06:21:54;;;;;;;5.53;3.28;;;15.80;99.90;;;;;;5074753;28;20442;-62
2023/08/16 06:24:20;;;;;;;7.32;3.85;;;15.90;99.90;;;;;;5074356;28;20580;-62
2023/08/16 06:26:46;;;;;;;5.78;3.97;;;16.00;99.90;;;;;;5091740;28;20043;-62
2023/08/16 06:29:12;;;;;;;8.27;4.63;;;16.10;99.90;;;;;;5074548;28;20082;-62
2023/08/16 06:31:37;;;;;;;7.28;4.88;;;16.20;99.90;;;;;;5092704;28;20358;-62
2023/08/16 06:34:03;;;;;;;7.55;4.70;;;16.30;99.90;;;;;;5067575;28;20090;-62
2023/08/16 06:36:29;;;;;;;7.32;5.50;;;16.40;99.90;;;;;;5051187;28;20051;-62
2023/08/16 06:38:54;;;;;;;7.22;4.47;;;16.50;99.90;;;;;;5051768;28;20406;-62
2023/08/16 06:41:20;;;;;;;9.85;5.15;;;16.70;99.90;;;;;;5034224;28;20049;-62
2023/08/16 06:43:46;;;;;;;7.43;4.65;;;16.80;99.90;;;;;;5058416;28;20032;-62
2023/08/16 06:46:12;;;;;;;7.18;5.28;;;17.00;99.90;;;;;;5089407;28;20040;-62
2023/08/16 06:48:37;;;;;;;7.38;4.57;;;17.10;99.90;;;;;;5070250;28;20570;-62
2023/08/16 06:51:04;;;;;;;6.97;4.65;;;17.30;99.90;;;;;;5070036;28;20052;-62
2023/08/16 06:53:32;;;;;;;6.47;4.18;;;17.50;99.90;;;;;;5071433;28;20119;-62
2023/08/16 06:55:58;;;;;;;7.60;3.58;;;17.60;99.90;;;;;;5065535;28;20078;-62
2023/08/16 06:58:24;;;;;;;9.70;4.50;;;17.70;99.90;;;;;;5088381;28;20040;-62
2023/08/16 07:00:50;;;;;;;8.00;4.40;;;17.80;99.90;;;;;;5071553;28;20043;-61
2023/08/16 07:03:17;;;;;;;10.25;5.03;;;17.90;99.90;;;;;;5070437;28;20476;-62
2023/08/16 07:05:43;;;;;;;7.88;3.97;;;18.00;99.90;;;;;;5071415;28;20040;-62
2023/08/16 07:08:09;;;;;;;7.18;4.10;;;18.10;99.90;;;;;;5071440;28;20035;-62
2023/08/16 07:10:35;;;;;;;7.32;4.22;;;18.20;99.90;;;;;;5070830;28;20032;-62
2023/08/16 07:13:02;;;;;;;8.95;4.32;;;18.30;99.90;;;;;;5071776;28;20084;-61
2023/08/16 07:15:28;;;;;;;8.73;4.50;;;18.40;99.90;;;;;;5070757;28;20055;-61
2023/08/16 07:17:54;;;;;;;8.57;5.10;;;18.40;99.90;;;;;;5091726;28;20044;-60
2023/08/16 07:20:19;;;;;;;10.93;5.32;;;18.50;99.90;;;;;;5092197;28;20115;-60
2023/08/16 07:22:45;;;;;;;8.10;4.80;;;18.60;99.90;;;;;;5091248;28;20114;-60
2023/08/16 07:25:12;;;;;;;8.55;4.20;;;18.70;99.90;;;;;;5091226;28;20050;-60
2023/08/16 07:27:37;;;;;;;9.40;4.65;;;18.70;99.90;;;;;;5072765;28;20043;-61
2023/08/16 07:30:04;;;;;;;8.13;4.53;;;18.70;99.90;;;;;;5091511;28;20036;-60
2023/08/16 07:32:30;;;;;;;8.57;4.97;;;18.70;99.90;;;;;;5073182;28;20051;-60
2023/08/16 07:34:56;;;;;;;7.80;3.80;;;18.80;99.90;;;;;;5073519;28;20496;-60
2023/08/16 07:37:22;;;;;;;10.90;5.18;;;18.90;99.90;;;;;;5091107;28;20051;-61
2023/08/16 07:39:48;;;;;;;8.10;4.43;;;19.10;99.90;;;;;;5091592;28;20032;-61
2023/08/16 07:42:17;;;;;;;10.02;4.90;;;19.30;99.90;;;;;;5073344;28;20044;-62
2023/08/16 07:44:43;;;;;;;8.05;4.05;;;19.30;99.90;;;;;;5072888;28;20036;-61
2023/08/16 07:47:11;;;;;;;8.90;4.53;;;19.30;99.90;;;;;;5091738;28;20040;-61
2023/08/16 07:49:36;;;;;;;8.30;4.63;;;19.40;99.90;;;;;;5075786;28;20073;-61
2023/08/16 07:52:02;;;;;;;8.27;4.85;;;19.40;99.90;;;;;;5076887;28;20040;-62
2023/08/16 07:54:28;;;;;;;7.15;3.90;;;19.30;99.90;;;;;;5095196;28;20067;-61
2023/08/16 07:56:54;;;;;;;7.53;4.78;;;19.30;99.90;;;;;;5077049;28;20079;-62
2023/08/16 07:59:20;;;;;;;10.10;4.20;;;19.20;99.90;;;;;;5076230;28;20503;-62
2023/08/16 08:01:45;;;;;;;9.00;5.00;;;19.10;99.90;;;;;;5077180;28;20035;-62
2023/08/16 08:04:11;;;;;;;7.88;4.70;;;19.00;99.90;;;;;;5077007;28;20508;-61
2023/08/16 08:06:37;;;;;;;8.60;4.78;;;18.90;99.90;;;;;;5076225;28;20044;-62
2023/08/16 08:09:03;;;;;;;8.00;4.85;;;18.80;99.90;;;;;;5077435;28;20071;-62
2023/08/16 08:11:29;;;;;;;10.98;6.05;;;18.70;99.90;;;;;;5094335;28;20050;-61
2023/08/16 08:13:56;;;;;;;12.07;5.43;;;18.70;99.90;;;;;;5094422;28;20032;-61
2023/08/16 08:16:22;;;;;;;9.73;5.10;;;18.60;99.90;;;;;;5060099;28;20035;-62
2023/08/16 08:18:48;;;;;;;9.63;4.30;;;18.60;99.90;;;;;;5075709;28;20097;-62
2023/08/16 08:21:14;;;;;;;7.60;3.45;;;18.60;99.90;;;;;;5076535;28;20477;-61
2023/08/16 08:23:40;;;;;;;7.75;3.55;;;18.60;99.90;;;;;;5075957;28;20118;-61
2023/08/16 08:26:06;;;;;;;7.07;3.38;;;18.70;99.90;;;;;;5094160;28;20481;-61
2023/08/16 08:28:32;;;;;;;8.38;3.58;;;18.80;99.90;;;;;;5071550;28;20032;-62
2023/08/16 08:31:02;;;;;;;8.38;3.78;;;18.90;99.90;;;;;;5056891;28;20044;-61
2023/08/16 08:33:29;;;;;;;7.30;3.83;;;19.10;99.90;;;;;;5073374;28;20045;-62
2023/08/16 08:35:55;;;;;;;7.30;3.95;;;19.20;99.90;;;;;;5056975;28;20033;-62
2023/08/16 08:38:22;;;;;;;8.43;3.40;;;19.30;99.90;;;;;;5068699;28;20076;-61
2023/08/16 08:40:58;;;;;;;7.55;3.47;;;19.50;99.90;;;;;;5058966;28;20043;-61
2023/08/16 08:43:32;;;;;;;7.68;3.15;;;19.60;99.90;;;;;;5094479;28;20069;-61
2023/08/16 08:45:59;;;;;;;4.80;2.75;;;19.80;99.90;;;;;;5076792;28;20040;-63
2023/08/16 08:48:26;;;;;;;5.93;2.78;;;19.80;99.90;;;;;;5075352;28;20109;-64
2023/08/16 08:50:54;;;;;;;4.95;2.70;;;19.90;99.90;;;;;;5059804;28;20066;-64
2023/08/16 08:53:26;;;;;;;5.25;2.90;;;20.00;99.90;;;;;;5093689;28;20044;-64
2023/08/16 08:55:54;;;;;;;5.22;2.10;;;20.10;99.90;;;;;;5058858;28;20447;-64
2023/08/16 08:58:22;;;;;;;4.97;2.65;;;20.20;99.90;;;;;;5084503;28;20047;-64
2023/08/16 09:00:49;;;;;;;6.72;3.05;;;20.20;99.90;;;;;;5093043;28;20040;-62
2023/08/16 09:03:18;;;;;;;6.13;2.47;;;20.20;99.90;;;;;;5075489;28;20119;-62
2023/08/16 09:05:52;;;;;;;8.10;3.08;;;20.30;99.90;;;;;;5093656;28;20055;-62
2023/08/16 09:08:18;;;;;;;4.75;2.28;;;20.40;99.90;;;;;;5075187;28;20051;-60
2023/08/16 09:10:46;;;;;;;3.90;1.90;;;20.40;99.90;;;;;;5067529;28;20039;-66
2023/08/16 09:13:12;;;;;;;5.40;2.10;;;20.40;99.90;;;;;;5076030;28;20071;-65
2023/08/16 09:15:38;;;;;;;4.32;1.98;;;20.40;99.90;;;;;;5074241;28;20076;-65
2023/08/16 09:18:10;;;;;;;6.00;2.20;;;20.50;99.90;;;;;;5075766;28;20085;-68
2023/08/16 09:20:37;;;;;;;5.70;2.38;;;20.60;99.90;;;;;;5075708;28;20055;-67
2023/08/16 09:23:02;;;;;;;5.45;2.40;;;20.60;99.90;;;;;;5058451;28;20047;-68
2023/08/16 09:25:29;;;;;;;5.30;2.20;;;20.50;99.90;;;;;;5093295;28;20376;-68
2023/08/16 09:27:55;;;;;;;5.35;2.10;;;20.50;99.90;;;;;;5075236;28;20043;-67
2023/08/16 09:30:23;;;;;;;5.18;2.10;;;20.60;99.90;;;;;;5092934;28;20384;-66
2023/08/16 09:32:51;;;;;;;5.80;2.47;;;20.60;99.90;;;;;;5093119;28;20048;-69
2023/08/16 09:35:17;;;;;;;5.45;1.92;;;20.70;99.90;;;;;;5075267;28;20044;-68
2023/08/16 09:37:44;;;;;;;3.45;1.60;;;20.80;99.90;;;;;;5074072;28;20055;-68
2023/08/16 09:40:15;;;;;;;4.13;1.58;;;20.90;99.90;;;;;;5075211;28;20044;-71
2023/08/16 09:42:41;;;;;;;3.15;1.67;;;21.00;99.90;;;;;;5093178;28;20051;-71
2023/08/16 09:45:07;;;;;;;3.25;1.58;;;21.10;99.90;;;;;;5092279;28;20028;-71
2023/08/16 09:47:33;;;;;;;4.65;1.50;;;21.10;99.90;;;;;;5092408;28;20477;-71
2023/08/16 09:50:06;;;;;;;5.78;1.83;;;21.10;99.90;;;;;;5093339;28;20185;-70
2023/08/16 09:52:33;;;;;;;4.30;2.30;;;21.20;99.90;;;;;;5074725;28;20040;-71
2023/08/16 09:54:59;;;;;;;4.85;1.90;;;21.10;99.90;;;;;;5075168;28;20396;-69
2023/08/16 09:57:25;;;;;;;4.50;1.73;;;21.20;99.90;;;;;;5073471;28;20039;-64
2023/08/16 09:59:51;;;;;;;6.15;2.05;;;21.20;99.90;;;;;;5075044;28;20465;-64
2023/08/16 10:02:18;;;;;;;5.93;1.77;;;21.20;99.90;;;;;;5093175;28;20078;-63
2023/08/16 10:04:45;;;;;;;3.88;1.50;;;21.30;99.90;;;;;;5082817;28;20044;-63
2023/08/16 10:07:11;;;;;;;5.22;2.03;;;21.30;99.90;;;;;;5092902;28;20048;-63
2023/08/16 10:09:38;;;;;;;4.38;1.83;;;21.40;99.90;;;;;;5074393;28;20071;-63
2023/08/16 10:12:06;;;;;;;5.05;2.08;;;21.50;99.90;;;;;;5073347;28;20047;-62
2023/08/16 10:14:33;;;;;;;5.60;2.22;;;21.40;99.90;;;;;;5092809;28;20040;-62
2023/08/16 10:17:06;;;;;;;5.78;1.80;;;21.30;99.90;;;;;;5054930;28;20405;-65
2023/08/16 10:19:38;;;;;;;4.07;1.65;;;21.20;99.90;;;;;;5084762;28;20089;-67
2023/08/16 10:22:13;;;;;;;3.72;1.63;;;21.10;99.90;;;;;;5092299;28;20055;-68
2023/08/16 10:24:40;;;;;;;4.43;1.83;;;21.10;99.90;;;;;;5074326;28;20043;-69
2023/08/16 10:27:07;;;;;;;3.63;1.70;;;21.20;99.90;;;;;;5073235;28;20072;-65
2023/08/16 10:29:40;;;;;;;4.10;1.83;;;21.30;99.90;;;;;;5074183;28;20044;-63
2023/08/16 10:32:11;;;;;;;4.03;1.80;;;21.40;99.90;;;;;;5074315;28;20044;-63
2023/08/16 10:34:39;;;;;;;3.78;1.70;;;21.40;99.90;;;;;;5073037;28;20162;-63
2023/08/16 10:37:06;;;;;;;4.43;1.60;;;21.50;99.90;;;;;;5074355;28;20173;-63
2023/08/16 10:39:31;;;;;;;6.45;1.90;;;21.60;99.90;;;;;;5089869;28;20048;-67
2023/08/16 10:42:07;;;;;;;5.30;1.85;;;21.60;99.90;;;;;;5074283;28;20043;-69
2023/08/16 10:44:33;;;;;;;3.88;1.50;;;21.70;99.90;;;;;;5092242;28;20040;-67
2023/08/16 10:46:59;;;;;;;4.57;1.75;;;21.60;99.90;;;;;;5091457;28;20050;-66
2023/08/16 10:49:35;;;;;;;5.32;1.50;;;21.60;99.90;;;;;;5091984;28;20051;-66
2023/08/16 10:52:01;;;;;;;3.53;1.30;;;21.70;99.90;;;;;;5073862;28;20140;-73
2023/08/16 10:54:35;;;;;;;3.42;1.20;;;21.70;99.90;;;;;;5074451;28;20040;-75
2023/08/16 10:57:02;;;;;;;3.88;1.40;;;21.70;99.90;;;;;;5070431;28;20044;-69
2023/08/16 10:59:39;;;;;;;4.45;2.35;;;21.80;99.90;;;;;;5053956;28;20040;-68
2023/08/16 11:02:15;;;;;;;3.08;1.10;;;21.80;99.90;;;;;;5071251;28;20072;-66
2023/08/16 11:04:46;;;;;;;3.42;1.20;;;21.80;99.90;;;;;;5054184;28;20041;-66
2023/08/16 11:07:12;;;;;;;3.35;1.40;;;21.80;99.90;;;;;;5054077;28;20535;-66
2023/08/16 11:09:41;;;;;;;2.42;0.98;;;21.70;99.90;;;;;;5070800;28;20079;-69
2023/08/16 11:12:07;;;;;;;4.15;1.05;;;21.70;99.90;;;;;;5070588;28;20079;-69
2023/08/16 11:14:34;;;;;;;3.63;1.00;;;21.80;99.90;;;;;;5053420;28;20032;-69
2023/08/16 11:17:01;;;;;;;1.70;0.90;;;22.00;99.90;;;;;;5070665;28;20621;-68
2023/08/16 11:19:26;;;;;;;2.28;1.00;;;22.00;99.90;;;;;;5070427;28;20047;-66
2023/08/16 11:21:52;;;;;;;4.63;1.40;;;22.00;99.90;;;;;;5069889;28;20040;-67
2023/08/16 11:24:18;;;;;;;2.85;0.98;;;21.90;99.90;;;;;;5074659;28;20477;-71
2023/08/16 11:26:45;;;;;;;3.03;1.23;;;22.00;99.90;;;;;;5057833;28;20044;-70
2023/08/16 11:29:11;;;;;;;4.20;1.13;;;22.10;99.90;;;;;;5073890;28;20067;-68
2023/08/16 11:31:36;;;;;;;3.15;1.10;;;22.10;99.90;;;;;;5057635;28;20474;-67
2023/08/16 11:34:10;;;;;;;3.08;1.30;;;22.10;99.90;;;;;;5074610;28;20040;-69
2023/08/16 11:36:38;;;;;;;6.10;1.60;;;21.90;99.90;;;;;;5074757;28;20040;-68
2023/08/16 11:39:04;;;;;;;3.50;1.35;;;21.70;99.90;;;;;;5074421;28;20080;-68
2023/08/16 11:41:30;;;;;;;4.45;1.38;;;21.70;99.90;;;;;;5057233;28;20036;-67
2023/08/16 11:43:59;;;;;;;4.22;1.33;;;21.80;99.90;;;;;;5074804;28;20043;-73
2023/08/16 11:46:25;;;;;;;4.88;1.40;;;21.90;99.90;;;;;;5075136;28;20489;-68
2023/08/16 11:48:51;;;;;;;2.72;1.10;;;21.90;99.90;;;;;;5073882;28;20067;-68
2023/08/16 11:51:17;;;;;;;3.17;1.20;;;21.70;99.90;;;;;;5056543;28;20041;-68
2023/08/16 11:53:43;;;;;;;5.95;1.50;;;21.60;99.90;;;;;;5057195;28;20051;-68
2023/08/16 11:56:09;;;;;;;10.73;1.73;;;21.60;99.90;;;;;;5057199;28;20489;-69
2023/08/16 11:59:02;;;;;;;3.65;1.42;;;21.70;99.90;;;;;;5056462;28;20029;-68
2023/08/16 12:01:28;;;;;;;2.72;1.00;;;21.90;99.90;;;;;;5053502;28;20101;-68
2023/08/16 12:03:57;;;;;;;3.55;1.10;;;21.90;99.90;;;;;;5056509;28;20436;-68
2023/08/16 12:06:22;;;;;;;4.10;1.48;;;21.80;99.90;;;;;;5074878;28;20481;-68
2023/08/16 12:08:53;;;;;;;2.40;1.00;;;21.80;99.90;;;;;;5074601;28;20045;-68
2023/08/16 12:11:31;;;;;;;4.07;1.10;;;21.90;99.90;;;;;;5039546;28;20090;-68
2023/08/16 12:13:58;;;;;;;2.95;1.30;;;22.00;99.90;;;;;;5073736;28;20047;-67
2023/08/16 12:16:24;;;;;;;2.67;1.40;;;22.00;99.90;;;;;;5074651;28;20485;-68
2023/08/16 12:18:50;;;;;;;3.85;1.20;;;22.10;99.90;;;;;;5056082;28;20043;-68
2023/08/16 12:21:15;;;;;;;3.30;1.05;;;22.20;99.90;;;;;;5056766;28;20474;-68
2023/08/16 12:23:41;;;;;;;5.22;1.42;;;22.30;99.90;;;;;;5073249;28;20067;-69
2023/08/16 12:26:07;;;;;;;3.95;1.23;;;22.30;99.90;;;;;;5055709;28;20083;-69
2023/08/16 12:28:33;;;;;;;2.78;1.23;;;22.30;99.90;;;;;;5056939;28;20044;-68
2023/08/16 12:30:58;;;;;;;5.22;1.35;;;22.30;99.90;;;;;;5073674;28;20603;-67
2023/08/16 12:33:24;;;;;;;5.43;1.30;;;22.30;99.90;;;;;;5055361;28;20051;-68
2023/08/16 12:35:50;;;;;;;6.18;2.08;;;22.40;99.90;;;;;;5055660;28;20044;-69
2023/08/16 12:38:15;;;;;;;4.38;1.45;;;22.30;99.90;;;;;;5039698;28;20041;-69
2023/08/16 12:40:41;;;;;;;3.47;1.00;;;22.30;99.90;;;;;;5072514;28;20164;-70
2023/08/16 12:43:07;;;;;;;3.13;1.20;;;22.30;99.90;;;;;;5056382;28;20570;-69